sensor_id;sensor_type;location;lat;lon;timestamp;P1;durP1;ratioP1;P2;durP2;ratioP2
25922;SDS011;13725;51.170;4.442;2023-04-01T00:00:16;7.55;;;2.28;;
25922;SDS011;13725;51.170;4.442;2023-04-01T00:02:42;9.40;;;2.60;;
25922;SDS011;13725;51.170;4.442;2023-04-01T00:05:08;8.30;;;2.20;;
25922;SDS011;13725;51.170;4.442;2023-04-01T00:07:35;8.48;;;2.38;;
25922;SDS011;13725;51.170;4.442;2023-04-01T00:10:02;6.53;;;2.88;;
25922;SDS011;13725;51.170;4.442;2023-04-01T00:12:29;6.40;;;2.60;;
25922;SDS011;13725;51.170;4.442;2023-04-01T00:14:55;11.13;;;2.67;;
25922;SDS011;13725;51.170;4.442;2023-04-01T00:17:20;7.28;;;3.15;;
25922;SDS011;13725;51.170;4.442;2023-04-01T00:19:46;9.63;;;3.10;;
25922;SDS011;13725;51.170;4.442;2023-04-01T00:22:13;9.52;;;3.05;;
25922;SDS011;13725;51.170;4.442;2023-04-01T00:24:38;9.70;;;3.67;;
25922;SDS011;13725;51.170;4.442;2023-04-01T00:27:04;7.15;;;3.15;;
25922;SDS011;13725;51.170;4.442;2023-04-01T00:29:30;11.70;;;4.07;;
25922;SDS011;13725;51.170;4.442;2023-04-01T00:31:57;10.80;;;4.00;;
25922;SDS011;13725;51.170;4.442;2023-04-01T00:34:23;10.60;;;4.13;;
25922;SDS011;13725;51.170;4.442;2023-04-01T00:36:49;17.05;;;4.70;;
25922;SDS011;13725;51.170;4.442;2023-04-01T00:39:16;13.45;;;4.15;;
25922;SDS011;13725;51.170;4.442;2023-04-01T00:41:41;13.48;;;4.30;;
25922;SDS011;13725;51.170;4.442;2023-04-01T00:44:14;10.38;;;4.60;;
25922;SDS011;13725;51.170;4.442;2023-04-01T00:46:43;7.88;;;3.97;;
25922;SDS011;13725;51.170;4.442;2023-04-01T00:49:09;9.38;;;4.22;;
25922;SDS011;13725;51.170;4.442;2023-04-01T00:51:35;13.05;;;5.88;;
25922;SDS011;13725;51.170;4.442;2023-04-01T00:54:03;10.40;;;5.15;;
25922;SDS011;13725;51.170;4.442;2023-04-01T00:56:32;13.00;;;5.20;;
25922;SDS011;13725;51.170;4.442;2023-04-01T00:59:13;15.32;;;5.55;;
25922;SDS011;13725;51.170;4.442;2023-04-01T01:01:41;11.20;;;6.03;;
25922;SDS011;13725;51.170;4.442;2023-04-01T01:04:07;13.13;;;5.45;;
25922;SDS011;13725;51.170;4.442;2023-04-01T01:06:46;13.23;;;6.38;;
25922;SDS011;13725;51.170;4.442;2023-04-01T01:09:47;12.73;;;5.97;;
25922;SDS011;13725;51.170;4.442;2023-04-01T01:12:30;16.95;;;6.88;;
25922;SDS011;13725;51.170;4.442;2023-04-01T01:15:20;12.20;;;7.10;;
25922;SDS011;13725;51.170;4.442;2023-04-01T01:17:58;18.42;;;7.43;;
25922;SDS011;13725;51.170;4.442;2023-04-01T01:20:54;12.68;;;7.10;;
25922;SDS011;13725;51.170;4.442;2023-04-01T01:26:50;20.60;;;7.82;;
25922;SDS011;13725;51.170;4.442;2023-04-01T01:32:05;16.77;;;8.82;;
25922;SDS011;13725;51.170;4.442;2023-04-01T01:39:41;16.63;;;8.43;;
25922;SDS011;13725;51.170;4.442;2023-04-01T01:42:11;12.63;;;6.78;;
25922;SDS011;13725;51.170;4.442;2023-04-01T01:44:40;21.50;;;5.47;;
25922;SDS011;13725;51.170;4.442;2023-04-01T01:47:09;11.73;;;5.72;;
25922;SDS011;13725;51.170;4.442;2023-04-01T01:49:36;13.73;;;6.25;;
25922;SDS011;13725;51.170;4.442;2023-04-01T01:52:04;13.82;;;6.05;;
25922;SDS011;13725;51.170;4.442;2023-04-01T01:54:30;16.10;;;6.80;;
25922;SDS011;13725;51.170;4.442;2023-04-01T01:56:59;18.48;;;7.00;;
25922;SDS011;13725;51.170;4.442;2023-04-01T01:59:30;14.70;;;6.90;;
25922;SDS011;13725;51.170;4.442;2023-04-01T02:01:59;17.80;;;7.80;;
25922;SDS011;13725;51.170;4.442;2023-04-01T02:04:32;14.23;;;7.85;;
25922;SDS011;13725;51.170;4.442;2023-04-01T02:07:05;15.98;;;8.13;;
25922;SDS011;13725;51.170;4.442;2023-04-01T02:09:36;22.17;;;9.52;;
25922;SDS011;13725;51.170;4.442;2023-04-01T02:12:07;14.55;;;8.45;;
25922;SDS011;13725;51.170;4.442;2023-04-01T02:17:19;20.75;;;7.07;;
25922;SDS011;13725;51.170;4.442;2023-04-01T02:19:51;12.45;;;7.30;;
25922;SDS011;13725;51.170;4.442;2023-04-01T02:22:26;12.48;;;7.25;;
25922;SDS011;13725;51.170;4.442;2023-04-01T02:25:05;17.20;;;7.93;;
25922;SDS011;13725;51.170;4.442;2023-04-01T02:27:33;15.45;;;7.28;;
25922;SDS011;13725;51.170;4.442;2023-04-01T02:29:59;12.25;;;6.80;;
25922;SDS011;13725;51.170;4.442;2023-04-01T02:32:25;12.85;;;7.00;;
25922;SDS011;13725;51.170;4.442;2023-04-01T02:34:54;13.23;;;7.18;;
25922;SDS011;13725;51.170;4.442;2023-04-01T02:37:21;15.88;;;7.00;;
25922;SDS011;13725;51.170;4.442;2023-04-01T02:39:48;15.07;;;7.55;;
25922;SDS011;13725;51.170;4.442;2023-04-01T02:42:13;15.48;;;6.60;;
25922;SDS011;13725;51.170;4.442;2023-04-01T02:44:39;15.73;;;7.95;;
25922;SDS011;13725;51.170;4.442;2023-04-01T02:47:05;12.95;;;6.05;;
25922;SDS011;13725;51.170;4.442;2023-04-01T02:49:30;13.82;;;6.43;;
25922;SDS011;13725;51.170;4.442;2023-04-01T02:51:56;19.25;;;7.03;;
25922;SDS011;13725;51.170;4.442;2023-04-01T02:54:22;10.27;;;5.78;;
25922;SDS011;13725;51.170;4.442;2023-04-01T02:56:47;14.52;;;5.93;;
25922;SDS011;13725;51.170;4.442;2023-04-01T02:59:13;8.65;;;5.18;;
25922;SDS011;13725;51.170;4.442;2023-04-01T03:01:39;13.93;;;5.18;;
25922;SDS011;13725;51.170;4.442;2023-04-01T03:04:05;11.27;;;4.28;;
25922;SDS011;13725;51.170;4.442;2023-04-01T03:06:30;8.73;;;4.13;;
25922;SDS011;13725;51.170;4.442;2023-04-01T03:08:56;6.68;;;4.10;;
25922;SDS011;13725;51.170;4.442;2023-04-01T03:11:22;9.55;;;4.53;;
25922;SDS011;13725;51.170;4.442;2023-04-01T03:13:48;8.05;;;5.10;;
25922;SDS011;13725;51.170;4.442;2023-04-01T03:16:14;5.70;;;4.35;;
25922;SDS011;13725;51.170;4.442;2023-04-01T03:18:40;5.88;;;4.10;;
25922;SDS011;13725;51.170;4.442;2023-04-01T03:21:19;6.72;;;3.70;;
25922;SDS011;13725;51.170;4.442;2023-04-01T03:23:47;10.07;;;4.00;;
25922;SDS011;13725;51.170;4.442;2023-04-01T03:26:13;9.25;;;3.90;;
25922;SDS011;13725;51.170;4.442;2023-04-01T03:28:39;12.25;;;4.45;;
25922;SDS011;13725;51.170;4.442;2023-04-01T03:31:04;11.05;;;4.07;;
25922;SDS011;13725;51.170;4.442;2023-04-01T03:33:37;5.82;;;3.67;;
25922;SDS011;13725;51.170;4.442;2023-04-01T03:36:03;7.15;;;4.07;;
25922;SDS011;13725;51.170;4.442;2023-04-01T03:38:32;9.32;;;4.43;;
25922;SDS011;13725;51.170;4.442;2023-04-01T03:41:00;11.13;;;4.68;;
25922;SDS011;13725;51.170;4.442;2023-04-01T03:43:27;11.85;;;4.78;;
25922;SDS011;13725;51.170;4.442;2023-04-01T03:45:53;9.35;;;5.05;;
25922;SDS011;13725;51.170;4.442;2023-04-01T03:48:19;12.88;;;4.95;;
25922;SDS011;13725;51.170;4.442;2023-04-01T03:50:45;11.45;;;5.18;;
25922;SDS011;13725;51.170;4.442;2023-04-01T03:53:11;9.02;;;4.53;;
25922;SDS011;13725;51.170;4.442;2023-04-01T03:55:40;9.27;;;4.75;;
25922;SDS011;13725;51.170;4.442;2023-04-01T03:58:07;13.88;;;5.43;;
25922;SDS011;13725;51.170;4.442;2023-04-01T04:00:33;13.75;;;5.97;;
25922;SDS011;13725;51.170;4.442;2023-04-01T04:02:59;15.55;;;7.60;;
25922;SDS011;13725;51.170;4.442;2023-04-01T04:05:30;11.88;;;6.47;;
25922;SDS011;13725;51.170;4.442;2023-04-01T04:07:56;17.40;;;7.00;;
25922;SDS011;13725;51.170;4.442;2023-04-01T04:10:22;17.38;;;7.57;;
25922;SDS011;13725;51.170;4.442;2023-04-01T04:12:50;14.43;;;7.32;;
25922;SDS011;13725;51.170;4.442;2023-04-01T04:15:17;18.02;;;7.60;;
25922;SDS011;13725;51.170;4.442;2023-04-01T04:17:44;17.45;;;7.25;;
25922;SDS011;13725;51.170;4.442;2023-04-01T04:20:10;15.68;;;7.20;;
25922;SDS011;13725;51.170;4.442;2023-04-01T04:22:36;13.40;;;6.90;;
25922;SDS011;13725;51.170;4.442;2023-04-01T04:25:05;18.83;;;7.22;;
25922;SDS011;13725;51.170;4.442;2023-04-01T04:27:31;17.17;;;6.78;;
25922;SDS011;13725;51.170;4.442;2023-04-01T04:30:05;10.55;;;6.28;;
25922;SDS011;13725;51.170;4.442;2023-04-01T04:32:32;13.15;;;6.20;;
25922;SDS011;13725;51.170;4.442;2023-04-01T04:34:58;12.75;;;6.00;;
25922;SDS011;13725;51.170;4.442;2023-04-01T04:37:24;14.02;;;6.05;;
25922;SDS011;13725;51.170;4.442;2023-04-01T04:39:51;10.50;;;5.05;;
25922;SDS011;13725;51.170;4.442;2023-04-01T04:42:17;9.02;;;5.10;;
25922;SDS011;13725;51.170;4.442;2023-04-01T04:44:43;11.70;;;5.00;;
25922;SDS011;13725;51.170;4.442;2023-04-01T04:47:09;13.13;;;5.75;;
25922;SDS011;13725;51.170;4.442;2023-04-01T04:49:35;10.73;;;5.25;;
25922;SDS011;13725;51.170;4.442;2023-04-01T04:52:05;12.75;;;5.45;;
25922;SDS011;13725;51.170;4.442;2023-04-01T04:54:31;11.70;;;5.40;;
25922;SDS011;13725;51.170;4.442;2023-04-01T04:56:58;16.42;;;5.35;;
25922;SDS011;13725;51.170;4.442;2023-04-01T04:59:26;9.38;;;5.32;;
25922;SDS011;13725;51.170;4.442;2023-04-01T05:02:06;11.73;;;4.90;;
25922;SDS011;13725;51.170;4.442;2023-04-01T05:04:35;11.27;;;5.00;;
25922;SDS011;13725;51.170;4.442;2023-04-01T05:07:02;11.45;;;4.35;;
25922;SDS011;13725;51.170;4.442;2023-04-01T05:09:28;11.32;;;3.88;;
25922;SDS011;13725;51.170;4.442;2023-04-01T05:11:54;9.43;;;5.30;;
25922;SDS011;13725;51.170;4.442;2023-04-01T05:14:21;7.70;;;3.95;;
25922;SDS011;13725;51.170;4.442;2023-04-01T05:16:59;6.22;;;3.60;;
25922;SDS011;13725;51.170;4.442;2023-04-01T05:19:24;5.05;;;3.05;;
25922;SDS011;13725;51.170;4.442;2023-04-01T05:21:50;9.32;;;3.28;;
25922;SDS011;13725;51.170;4.442;2023-04-01T05:24:18;4.60;;;2.88;;
25922;SDS011;13725;51.170;4.442;2023-04-01T05:26:45;7.38;;;3.20;;
25922;SDS011;13725;51.170;4.442;2023-04-01T05:29:10;6.97;;;3.30;;
25922;SDS011;13725;51.170;4.442;2023-04-01T05:31:37;5.65;;;3.70;;
25922;SDS011;13725;51.170;4.442;2023-04-01T05:34:03;5.63;;;3.72;;
25922;SDS011;13725;51.170;4.442;2023-04-01T05:36:29;7.38;;;3.70;;
25922;SDS011;13725;51.170;4.442;2023-04-01T05:38:55;6.82;;;3.38;;
25922;SDS011;13725;51.170;4.442;2023-04-01T05:41:21;7.68;;;3.50;;
25922;SDS011;13725;51.170;4.442;2023-04-01T05:43:47;4.60;;;3.03;;
25922;SDS011;13725;51.170;4.442;2023-04-01T05:46:31;10.35;;;3.33;;
25922;SDS011;13725;51.170;4.442;2023-04-01T05:49:23;7.20;;;3.40;;
25922;SDS011;13725;51.170;4.442;2023-04-01T05:51:49;7.40;;;3.75;;
25922;SDS011;13725;51.170;4.442;2023-04-01T05:54:17;15.43;;;4.30;;
25922;SDS011;13725;51.170;4.442;2023-04-01T05:56:43;7.30;;;4.43;;
25922;SDS011;13725;51.170;4.442;2023-04-01T05:59:10;8.55;;;3.75;;
25922;SDS011;13725;51.170;4.442;2023-04-01T06:01:36;8.35;;;4.45;;
25922;SDS011;13725;51.170;4.442;2023-04-01T06:04:02;4.47;;;3.40;;
25922;SDS011;13725;51.170;4.442;2023-04-01T06:06:28;8.13;;;3.40;;
25922;SDS011;13725;51.170;4.442;2023-04-01T06:11:58;8.02;;;4.25;;
25922;SDS011;13725;51.170;4.442;2023-04-01T06:22:55;6.82;;;2.72;;
25922;SDS011;13725;51.170;4.442;2023-04-01T06:25:29;3.55;;;2.75;;
25922;SDS011;13725;51.170;4.442;2023-04-01T06:41:56;5.55;;;2.88;;
25922;SDS011;13725;51.170;4.442;2023-04-01T06:44:35;6.00;;;2.40;;
25922;SDS011;13725;51.170;4.442;2023-04-01T06:54:05;5.05;;;1.90;;
25922;SDS011;13725;51.170;4.442;2023-04-01T06:59:54;3.67;;;2.50;;
25922;SDS011;13725;51.170;4.442;2023-04-01T07:02:37;7.03;;;2.47;;
25922;SDS011;13725;51.170;4.442;2023-04-01T07:05:08;3.17;;;2.03;;
25922;SDS011;13725;51.170;4.442;2023-04-01T07:07:50;5.50;;;2.42;;
25922;SDS011;13725;51.170;4.442;2023-04-01T07:13:49;4.75;;;2.67;;
25922;SDS011;13725;51.170;4.442;2023-04-01T07:19:02;4.47;;;2.88;;
25922;SDS011;13725;51.170;4.442;2023-04-01T07:21:49;8.63;;;2.92;;
25922;SDS011;13725;51.170;4.442;2023-04-01T07:24:32;5.88;;;2.83;;
25922;SDS011;13725;51.170;4.442;2023-04-01T07:27:05;4.15;;;3.10;;
25922;SDS011;13725;51.170;4.442;2023-04-01T07:29:36;4.97;;;3.37;;
25922;SDS011;13725;51.170;4.442;2023-04-01T07:35:30;5.63;;;3.58;;
25922;SDS011;13725;51.170;4.442;2023-04-01T07:49:14;4.78;;;3.50;;
25922;SDS011;13725;51.170;4.442;2023-04-01T07:51:53;5.22;;;3.58;;
25922;SDS011;13725;51.170;4.442;2023-04-01T08:14:54;9.20;;;4.88;;
25922;SDS011;13725;51.170;4.442;2023-04-01T08:23:00;5.20;;;2.78;;
25922;SDS011;13725;51.170;4.442;2023-04-01T08:25:41;4.07;;;2.50;;
25922;SDS011;13725;51.170;4.442;2023-04-01T08:28:37;5.28;;;2.63;;
25922;SDS011;13725;51.170;4.442;2023-04-01T08:33:42;4.57;;;2.60;;
25922;SDS011;13725;51.170;4.442;2023-04-01T08:36:19;2.95;;;2.38;;
25922;SDS011;13725;51.170;4.442;2023-04-01T08:39:13;2.85;;;2.33;;
25922;SDS011;13725;51.170;4.442;2023-04-01T08:41:52;2.42;;;1.88;;
25922;SDS011;13725;51.170;4.442;2023-04-01T08:56:29;10.13;;;6.25;;
25922;SDS011;13725;51.170;4.442;2023-04-01T09:19:07;3.45;;;3.00;;
25922;SDS011;13725;51.170;4.442;2023-04-01T09:22:09;5.03;;;2.35;;
25922;SDS011;13725;51.170;4.442;2023-04-01T09:27:56;2.00;;;1.70;;
25922;SDS011;13725;51.170;4.442;2023-04-01T09:30:34;2.97;;;1.80;;
25922;SDS011;13725;51.170;4.442;2023-04-01T09:53:48;5.63;;;4.40;;
25922;SDS011;13725;51.170;4.442;2023-04-01T10:32:14;7.63;;;5.00;;
25922;SDS011;13725;51.170;4.442;2023-04-01T10:40:13;8.18;;;4.65;;
25922;SDS011;13725;51.170;4.442;2023-04-01T10:48:53;5.28;;;2.90;;
25922;SDS011;13725;51.170;4.442;2023-04-01T11:14:14;9.52;;;4.13;;
25922;SDS011;13725;51.170;4.442;2023-04-01T11:42:19;6.15;;;3.13;;
25922;SDS011;13725;51.170;4.442;2023-04-01T11:45:22;4.10;;;2.78;;
25922;SDS011;13725;51.170;4.442;2023-04-01T12:02:10;6.55;;;2.53;;
25922;SDS011;13725;51.170;4.442;2023-04-01T12:10:14;6.20;;;3.63;;
25922;SDS011;13725;51.170;4.442;2023-04-01T12:21:28;8.23;;;4.85;;
25922;SDS011;13725;51.170;4.442;2023-04-01T12:32:41;8.32;;;5.70;;
25922;SDS011;13725;51.170;4.442;2023-04-01T12:52:12;4.18;;;3.55;;
25922;SDS011;13725;51.170;4.442;2023-04-01T13:00:21;2.20;;;1.98;;
25922;SDS011;13725;51.170;4.442;2023-04-01T13:11:25;6.15;;;3.50;;
25922;SDS011;13725;51.170;4.442;2023-04-01T13:17:10;5.57;;;4.45;;
25922;SDS011;13725;51.170;4.442;2023-04-01T13:19:52;7.07;;;4.25;;
25922;SDS011;13725;51.170;4.442;2023-04-01T13:22:29;8.18;;;5.38;;
25922;SDS011;13725;51.170;4.442;2023-04-01T13:30:43;10.15;;;7.55;;
25922;SDS011;13725;51.170;4.442;2023-04-01T13:35:48;13.63;;;7.68;;
25922;SDS011;13725;51.170;4.442;2023-04-01T13:41:25;14.38;;;7.97;;
25922;SDS011;13725;51.170;4.442;2023-04-01T13:46:47;11.90;;;8.63;;
25922;SDS011;13725;51.170;4.442;2023-04-01T14:01:08;5.50;;;3.63;;
25922;SDS011;13725;51.170;4.442;2023-04-01T14:13:28;9.85;;;6.72;;
25922;SDS011;13725;51.170;4.442;2023-04-01T14:22:04;5.22;;;3.33;;
25922;SDS011;13725;51.170;4.442;2023-04-01T14:27:31;5.82;;;3.63;;
25922;SDS011;13725;51.170;4.442;2023-04-01T14:30:07;9.40;;;4.38;;
25922;SDS011;13725;51.170;4.442;2023-04-01T14:35:54;5.88;;;3.70;;
25922;SDS011;13725;51.170;4.442;2023-04-01T14:39:00;3.63;;;3.25;;
25922;SDS011;13725;51.170;4.442;2023-04-01T14:41:59;4.63;;;3.20;;
25922;SDS011;13725;51.170;4.442;2023-04-01T14:44:45;4.88;;;3.30;;
25922;SDS011;13725;51.170;4.442;2023-04-01T14:47:56;4.13;;;3.30;;
25922;SDS011;13725;51.170;4.442;2023-04-01T14:50:23;3.63;;;2.90;;
25922;SDS011;13725;51.170;4.442;2023-04-01T14:55:33;3.17;;;1.95;;
25922;SDS011;13725;51.170;4.442;2023-04-01T14:58:10;7.53;;;2.53;;
25922;SDS011;13725;51.170;4.442;2023-04-01T15:01:01;3.78;;;2.60;;
25922;SDS011;13725;51.170;4.442;2023-04-01T15:12:03;2.30;;;2.10;;
25922;SDS011;13725;51.170;4.442;2023-04-01T15:17:28;6.68;;;2.10;;
25922;SDS011;13725;51.170;4.442;2023-04-01T15:25:27;5.07;;;3.55;;
25922;SDS011;13725;51.170;4.442;2023-04-01T15:34:07;8.48;;;5.22;;
25922;SDS011;13725;51.170;4.442;2023-04-01T15:36:57;12.07;;;4.60;;
25922;SDS011;13725;51.170;4.442;2023-04-01T15:39:54;8.43;;;5.00;;
25922;SDS011;13725;51.170;4.442;2023-04-01T15:53:34;6.65;;;3.92;;
25922;SDS011;13725;51.170;4.442;2023-04-01T16:12:42;7.75;;;5.43;;
25922;SDS011;13725;51.170;4.442;2023-04-01T16:15:16;8.88;;;5.55;;
25922;SDS011;13725;51.170;4.442;2023-04-01T16:23:35;10.05;;;5.80;;
25922;SDS011;13725;51.170;4.442;2023-04-01T16:26:30;8.98;;;6.97;;
25922;SDS011;13725;51.170;4.442;2023-04-01T16:29:10;11.85;;;7.50;;
25922;SDS011;13725;51.170;4.442;2023-04-01T16:31:52;13.35;;;8.90;;
25922;SDS011;13725;51.170;4.442;2023-04-01T16:34:30;12.13;;;9.20;;
25922;SDS011;13725;51.170;4.442;2023-04-01T16:45:30;9.70;;;6.45;;
25922;SDS011;13725;51.170;4.442;2023-04-01T16:48:48;15.25;;;7.13;;
25922;SDS011;13725;51.170;4.442;2023-04-01T16:51:10;9.18;;;6.32;;
25922;SDS011;13725;51.170;4.442;2023-04-01T16:53:44;8.20;;;5.70;;
25922;SDS011;13725;51.170;4.442;2023-04-01T16:58:43;9.23;;;4.20;;
25922;SDS011;13725;51.170;4.442;2023-04-01T17:01:20;11.47;;;5.10;;
25922;SDS011;13725;51.170;4.442;2023-04-01T17:03:52;7.13;;;4.80;;
25922;SDS011;13725;51.170;4.442;2023-04-01T17:06:37;6.70;;;4.25;;
25922;SDS011;13725;51.170;4.442;2023-04-01T17:11:54;9.57;;;5.00;;
25922;SDS011;13725;51.170;4.442;2023-04-01T17:38:49;3.95;;;2.00;;
25922;SDS011;13725;51.170;4.442;2023-04-01T17:44:33;5.22;;;2.60;;
25922;SDS011;13725;51.170;4.442;2023-04-01T17:52:38;6.30;;;4.05;;
25922;SDS011;13725;51.170;4.442;2023-04-01T18:03:52;15.32;;;6.53;;
25922;SDS011;13725;51.170;4.442;2023-04-01T18:06:29;13.32;;;6.40;;
25922;SDS011;13725;51.170;4.442;2023-04-01T18:09:41;23.50;;;7.68;;
25922;SDS011;13725;51.170;4.442;2023-04-01T18:17:24;39.17;;;15.35;;
25922;SDS011;13725;51.170;4.442;2023-04-01T18:22:39;20.10;;;9.90;;
25922;SDS011;13725;51.170;4.442;2023-04-01T18:27:44;30.95;;;8.77;;
25922;SDS011;13725;51.170;4.442;2023-04-01T18:30:15;24.80;;;8.18;;
25922;SDS011;13725;51.170;4.442;2023-04-01T18:40:35;23.77;;;11.07;;
25922;SDS011;13725;51.170;4.442;2023-04-01T18:51:55;30.08;;;11.35;;
25922;SDS011;13725;51.170;4.442;2023-04-01T18:54:33;26.52;;;10.18;;
25922;SDS011;13725;51.170;4.442;2023-04-01T18:57:12;21.67;;;9.55;;
25922;SDS011;13725;51.170;4.442;2023-04-01T19:05:07;31.48;;;9.43;;
25922;SDS011;13725;51.170;4.442;2023-04-01T19:07:53;30.17;;;9.02;;
25922;SDS011;13725;51.170;4.442;2023-04-01T19:18:43;41.13;;;18.38;;
25922;SDS011;13725;51.170;4.442;2023-04-01T19:26:39;32.65;;;14.13;;
25922;SDS011;13725;51.170;4.442;2023-04-01T19:51:34;39.60;;;16.88;;
25922;SDS011;13725;51.170;4.442;2023-04-01T20:07:10;28.90;;;14.75;;
25922;SDS011;13725;51.170;4.442;2023-04-01T20:09:56;30.13;;;14.27;;
25922;SDS011;13725;51.170;4.442;2023-04-01T20:12:45;34.90;;;14.48;;
25922;SDS011;13725;51.170;4.442;2023-04-01T20:17:56;24.45;;;12.55;;
25922;SDS011;13725;51.170;4.442;2023-04-01T20:20:26;24.55;;;12.43;;
25922;SDS011;13725;51.170;4.442;2023-04-01T20:36:26;17.73;;;9.38;;
25922;SDS011;13725;51.170;4.442;2023-04-01T20:44:12;18.10;;;9.23;;
25922;SDS011;13725;51.170;4.442;2023-04-01T20:46:42;17.30;;;8.82;;
25922;SDS011;13725;51.170;4.442;2023-04-01T20:49:52;15.85;;;9.50;;
25922;SDS011;13725;51.170;4.442;2023-04-01T20:52:32;15.50;;;8.88;;
25922;SDS011;13725;51.170;4.442;2023-04-01T20:57:36;14.93;;;8.23;;
25922;SDS011;13725;51.170;4.442;2023-04-01T21:00:27;12.43;;;7.55;;
25922;SDS011;13725;51.170;4.442;2023-04-01T21:03:13;11.25;;;7.13;;
25922;SDS011;13725;51.170;4.442;2023-04-01T21:06:03;9.52;;;6.20;;
25922;SDS011;13725;51.170;4.442;2023-04-01T21:08:44;10.27;;;6.97;;
25922;SDS011;13725;51.170;4.442;2023-04-01T21:11:18;11.18;;;5.97;;
25922;SDS011;13725;51.170;4.442;2023-04-01T21:22:12;13.35;;;7.95;;
25922;SDS011;13725;51.170;4.442;2023-04-01T21:24:53;13.20;;;8.30;;
25922;SDS011;13725;51.170;4.442;2023-04-01T21:27:43;14.32;;;8.73;;
25922;SDS011;13725;51.170;4.442;2023-04-01T21:41:31;18.13;;;10.57;;
25922;SDS011;13725;51.170;4.442;2023-04-01T21:55:07;17.25;;;10.40;;
25922;SDS011;13725;51.170;4.442;2023-04-01T22:05:39;21.95;;;13.73;;
25922;SDS011;13725;51.170;4.442;2023-04-01T22:17:00;19.02;;;11.77;;
25922;SDS011;13725;51.170;4.442;2023-04-01T22:25:14;19.58;;;11.30;;
25922;SDS011;13725;51.170;4.442;2023-04-01T22:30:49;19.08;;;11.05;;
25922;SDS011;13725;51.170;4.442;2023-04-01T22:36:06;19.95;;;11.57;;
25922;SDS011;13725;51.170;4.442;2023-04-01T22:41:14;17.60;;;10.75;;
25922;SDS011;13725;51.170;4.442;2023-04-01T22:43:51;18.83;;;11.27;;
25922;SDS011;13725;51.170;4.442;2023-04-01T22:49:20;22.40;;;12.45;;
25922;SDS011;13725;51.170;4.442;2023-04-01T22:51:54;26.55;;;14.07;;
25922;SDS011;13725;51.170;4.442;2023-04-01T22:54:23;24.45;;;14.05;;
25922;SDS011;13725;51.170;4.442;2023-04-01T22:59:24;23.23;;;12.88;;
25922;SDS011;13725;51.170;4.442;2023-04-01T23:02:02;24.48;;;14.38;;
25922;SDS011;13725;51.170;4.442;2023-04-01T23:04:35;28.75;;;14.68;;
25922;SDS011;13725;51.170;4.442;2023-04-01T23:07:14;25.83;;;15.00;;
25922;SDS011;13725;51.170;4.442;2023-04-01T23:10:00;27.05;;;14.50;;
25922;SDS011;13725;51.170;4.442;2023-04-01T23:12:30;28.02;;;14.60;;
25922;SDS011;13725;51.170;4.442;2023-04-01T23:15:00;26.08;;;14.27;;
25922;SDS011;13725;51.170;4.442;2023-04-01T23:17:30;26.15;;;14.73;;
25922;SDS011;13725;51.170;4.442;2023-04-01T23:34:27;29.15;;;14.63;;
25922;SDS011;13725;51.170;4.442;2023-04-01T23:36:57;28.17;;;13.20;;
25922;SDS011;13725;51.170;4.442;2023-04-01T23:39:33;24.60;;;12.80;;
25922;SDS011;13725;51.170;4.442;2023-04-01T23:42:12;22.13;;;12.93;;
25922;SDS011;13725;51.170;4.442;2023-04-01T23:44:38;21.05;;;12.23;;
25922;SDS011;13725;51.170;4.442;2023-04-01T23:47:04;18.00;;;11.35;;
25922;SDS011;13725;51.170;4.442;2023-04-01T23:49:35;22.02;;;12.05;;
25922;SDS011;13725;51.170;4.442;2023-04-01T23:57:36;23.15;;;11.85;;
